createdAt,value
2023-01-01T00:01:41.928Z,100.60
2023-01-01T00:04:14.443Z,91.55
2023-01-01T00:06:42.809Z,83.18
2023-01-01T00:09:27.901Z,86.32
2023-01-01T00:11:55.706Z,83.95
2023-01-01T00:14:26.764Z,90.40
2023-01-01T00:16:55.711Z,90.82
2023-01-01T00:19:24.865Z,101.15
2023-01-01T00:21:55.365Z,104.13
2023-01-01T00:24:23.114Z,108.43
2023-01-01T00:26:50.877Z,117.57
2023-01-01T00:29:18.615Z,132.45
2023-01-01T00:31:47.960Z,135.00
2023-01-01T00:34:15.901Z,148.15
2023-01-01T00:36:44.982Z,144.77
2023-01-01T00:39:12.746Z,132.43
2023-01-01T00:41:40.481Z,146.15
2023-01-01T00:44:08.254Z,142.18
2023-01-01T00:46:36.088Z,166.35
2023-01-01T00:49:13.512Z,176.57
2023-01-01T00:51:41.299Z,171.88
2023-01-01T00:54:10.519Z,179.02
2023-01-01T00:56:38.318Z,188.40
2023-01-01T00:59:06.318Z,206.63
2023-01-01T01:01:34.605Z,197.75
2023-01-01T01:04:03.799Z,197.20
2023-01-01T01:06:31.642Z,218.02
2023-01-01T01:08:59.384Z,208.10
2023-01-01T01:11:28.472Z,216.68
2023-01-01T01:13:57.509Z,196.70
2023-01-01T01:16:27.005Z,187.00
2023-01-01T01:18:57.524Z,184.93
2023-01-01T01:21:26.099Z,191.20
2023-01-01T01:23:54.923Z,164.38
2023-01-01T01:26:24.824Z,145.35
2023-01-01T01:28:54.801Z,141.40
2023-01-01T01:31:24.358Z,133.98
2023-01-01T01:33:52.741Z,128.48
2023-01-01T01:36:20.853Z,115.57
2023-01-01T01:38:48.744Z,116.63
2023-01-01T01:41:27.223Z,112.47
2023-01-01T01:43:59.761Z,104.68
2023-01-01T01:46:35.820Z,105.97
2023-01-01T01:49:06.740Z,101.28
2023-01-01T01:51:37.761Z,88.28
2023-01-01T01:54:11.444Z,80.88
2023-01-01T01:56:45.712Z,67.63
2023-01-01T01:59:15.833Z,73.05
2023-01-01T02:01:43.655Z,69.63
2023-01-01T02:04:12.449Z,90.35
2023-01-01T02:06:41.065Z,100.80
2023-01-01T02:09:10.402Z,95.93
2023-01-01T02:11:38.583Z,94.85
2023-01-01T02:14:07.048Z,101.53
2023-01-01T02:16:40.456Z,111.63
2023-01-01T02:19:18.292Z,110.22
2023-01-01T02:21:55.741Z,108.57
2023-01-01T02:24:41.259Z,114.13
2023-01-01T02:27:16.377Z,111.18
2023-01-01T02:29:49.766Z,108.18
2023-01-01T02:32:21.901Z,102.00
2023-01-01T02:34:54.318Z,113.90
2023-01-01T02:37:24.223Z,125.55
2023-01-01T02:39:56.254Z,112.32
2023-01-01T02:42:28.588Z,106.55
2023-01-01T02:47:26.926Z,106.40
2023-01-01T02:50:00.436Z,94.00
2023-01-01T02:53:06.255Z,90.13
2023-01-01T02:55:40.724Z,82.10
2023-01-01T02:58:30.723Z,71.50
2023-01-01T03:01:09.266Z,66.07
2023-01-01T03:03:43.243Z,62.45
2023-01-01T03:06:23.562Z,51.83
2023-01-01T03:08:59.005Z,58.15
2023-01-01T03:11:33.429Z,54.65
2023-01-01T03:14:06.783Z,50.92
2023-01-01T03:16:39.390Z,48.10
2023-01-01T03:19:12.984Z,41.00
2023-01-01T03:21:44.541Z,33.70
2023-01-01T03:24:18.559Z,31.67
2023-01-01T03:26:49.531Z,33.35
2023-01-01T03:29:18.875Z,37.33
2023-01-01T03:31:51.791Z,33.45
2023-01-01T03:34:23.254Z,28.90
2023-01-01T03:36:56.140Z,34.40
2023-01-01T03:39:27.837Z,30.95
2023-01-01T03:42:01.766Z,40.10
2023-01-01T03:44:35.020Z,33.83
2023-01-01T03:47:07.018Z,35.13
2023-01-01T03:49:35.579Z,33.95
2023-01-01T03:52:17.024Z,35.42
2023-01-01T03:54:58.468Z,36.85
2023-01-01T03:57:32.668Z,36.17
2023-01-01T04:00:07.999Z,26.88
2023-01-01T04:02:40.727Z,24.65
2023-01-01T04:05:11.140Z,27.15
2023-01-01T04:07:40.026Z,27.65
2023-01-01T04:10:17.992Z,27.27
2023-01-01T04:12:48.752Z,27.13
2023-01-01T04:15:17.287Z,24.17
2023-01-01T04:17:46.886Z,21.35
2023-01-01T04:20:15.374Z,22.30
2023-01-01T04:22:43.314Z,22.67
2023-01-01T04:25:12.182Z,21.83
2023-01-01T04:27:40.345Z,23.17
2023-01-01T04:30:10.599Z,22.35
2023-01-01T04:32:38.520Z,21.88
2023-01-01T04:35:09.907Z,20.08
2023-01-01T04:37:37.912Z,14.40
2023-01-01T04:40:07.113Z,18.65
2023-01-01T04:42:35.442Z,14.15
2023-01-01T04:45:03.880Z,12.38
2023-01-01T04:47:31.674Z,15.73
2023-01-01T04:49:59.427Z,11.93
2023-01-01T04:52:28.660Z,13.27
2023-01-01T04:54:56.463Z,12.30
2023-01-01T04:57:24.202Z,8.70
2023-01-01T04:59:51.961Z,9.70
2023-01-01T05:02:19.860Z,9.55
2023-01-01T05:04:47.715Z,7.53
2023-01-01T05:07:15.442Z,7.97
2023-01-01T05:09:44.547Z,7.95
2023-01-01T05:12:12.296Z,8.20
2023-01-01T05:14:40.037Z,8.90
2023-01-01T05:17:07.793Z,9.57
2023-01-01T05:19:35.579Z,8.00
2023-01-01T05:22:10.257Z,9.52
2023-01-01T05:24:38.549Z,7.90
2023-01-01T05:27:08.608Z,7.60
2023-01-01T05:29:36.387Z,10.85
2023-01-01T05:32:04.310Z,7.10
2023-01-01T05:36:58.915Z,7.70
2023-01-01T05:39:26.685Z,5.40
2023-01-01T05:41:54.413Z,7.82
2023-01-01T05:44:23.558Z,7.60
2023-01-01T05:46:51.336Z,9.55
2023-01-01T05:49:19.085Z,6.68
2023-01-01T05:51:46.852Z,7.30
2023-01-01T05:56:41.429Z,7.97
2023-01-01T05:59:11.070Z,8.50
2023-01-01T06:01:45.469Z,8.00
2023-01-01T06:04:14.503Z,7.82
2023-01-01T06:06:42.405Z,7.05
2023-01-01T06:09:11.561Z,4.88
2023-01-01T06:11:39.400Z,7.07
2023-01-01T06:14:07.153Z,4.28
2023-01-01T06:16:35.029Z,6.28
2023-01-01T06:19:04.313Z,4.65
2023-01-01T06:21:32.042Z,3.88
2023-01-01T06:24:00.718Z,4.03
2023-01-01T06:26:30.795Z,5.90
2023-01-01T06:28:59.340Z,3.80
2023-01-01T06:31:28.381Z,3.72
2023-01-01T06:33:56.348Z,5.35
2023-01-01T06:36:26.601Z,4.72
2023-01-01T06:38:56.651Z,3.00
2023-01-01T06:41:26.600Z,4.93
2023-01-01T06:43:55.982Z,3.50
2023-01-01T06:46:27.107Z,2.92
2023-01-01T06:48:56.316Z,3.15
2023-01-01T06:51:26.608Z,3.95
2023-01-01T06:53:54.842Z,4.00
2023-01-01T06:56:22.915Z,4.55
2023-01-01T06:58:50.789Z,3.67
2023-01-01T07:01:20.625Z,3.25
2023-01-01T07:03:52.292Z,4.32
2023-01-01T07:06:20.141Z,3.38
2023-01-01T07:08:49.394Z,3.72
2023-01-01T07:11:17.314Z,4.50
2023-01-01T07:13:45.421Z,5.25
2023-01-01T07:16:13.898Z,4.57
2023-01-01T07:18:42.147Z,5.55
2023-01-01T07:21:29.441Z,4.20
2023-01-01T07:23:59.291Z,3.47
2023-01-01T07:26:28.070Z,4.95
2023-01-01T07:28:59.650Z,3.85
2023-01-01T07:31:33.983Z,3.53
2023-01-01T07:34:01.762Z,4.53
2023-01-01T07:36:29.507Z,5.10
2023-01-01T07:38:58.583Z,3.60
2023-01-01T07:41:26.333Z,2.40
2023-01-01T07:43:54.077Z,3.03
2023-01-01T07:46:21.973Z,4.13
2023-01-01T07:48:49.883Z,3.25
2023-01-01T07:51:17.634Z,3.40
2023-01-01T07:53:45.400Z,4.13
2023-01-01T07:56:14.485Z,3.40
2023-01-01T07:58:42.656Z,2.60
2023-01-01T08:01:11.691Z,2.75
2023-01-01T08:03:39.634Z,3.42
2023-01-01T08:06:09.763Z,3.05
2023-01-01T08:08:37.642Z,2.78
2023-01-01T08:11:05.948Z,2.53
2023-01-01T08:13:35.287Z,2.55
2023-01-01T08:16:03.279Z,2.25
2023-01-01T08:18:31.040Z,2.78
2023-01-01T08:20:58.835Z,2.15
2023-01-01T08:23:26.660Z,2.97
2023-01-01T08:25:54.400Z,3.08
2023-01-01T08:28:22.135Z,2.65
2023-01-01T08:30:51.458Z,2.92
2023-01-01T08:33:19.250Z,2.25
2023-01-01T08:35:53.707Z,2.25
2023-01-01T08:38:22.014Z,4.30
2023-01-01T08:40:49.814Z,6.07
2023-01-01T08:43:17.605Z,2.53
2023-01-01T08:45:45.519Z,4.07
2023-01-01T08:48:14.603Z,2.95
2023-01-01T08:50:42.372Z,2.30
2023-01-01T08:53:10.124Z,2.08
2023-01-01T08:55:37.860Z,1.75
2023-01-01T08:58:07.433Z,2.15
2023-01-01T09:00:35.210Z,2.85
2023-01-01T09:03:03.086Z,2.30
2023-01-01T09:05:32.269Z,2.30
2023-01-01T09:08:00.063Z,2.22
2023-01-01T09:10:27.824Z,2.88
2023-01-01T09:12:55.575Z,2.47
2023-01-01T09:15:23.438Z,2.38
2023-01-01T09:17:51.254Z,3.63
2023-01-01T09:20:19.019Z,2.97
2023-01-01T09:22:48.089Z,2.58
2023-01-01T09:25:15.864Z,3.53
2023-01-01T09:27:43.613Z,3.70
2023-01-01T09:30:12.322Z,4.28
2023-01-01T09:32:40.159Z,3.20
2023-01-01T09:35:08.491Z,2.90
2023-01-01T09:37:36.357Z,4.05
2023-01-01T09:40:06.063Z,2.42
2023-01-01T09:42:39.714Z,3.58
2023-01-01T09:45:21.043Z,3.45
2023-01-01T09:47:52.129Z,6.75
2023-01-01T09:50:23.094Z,4.25
2023-01-01T09:52:55.125Z,4.65
2023-01-01T09:55:27.774Z,4.40
2023-01-01T09:57:57.079Z,4.22
2023-01-01T10:00:25.213Z,4.03
2023-01-01T10:03:07.855Z,2.63
2023-01-01T10:08:23.657Z,7.68
2023-01-01T10:10:59.476Z,5.22
2023-01-01T10:13:34.149Z,3.90
2023-01-01T10:16:09.739Z,4.95
2023-01-01T10:18:39.833Z,3.85
2023-01-01T10:21:13.707Z,2.25
2023-01-01T10:23:45.728Z,3.10
2023-01-01T10:26:17.714Z,7.35
2023-01-01T10:28:52.542Z,2.33
2023-01-01T10:31:27.118Z,2.63
2023-01-01T10:33:54.945Z,3.72
2023-01-01T10:36:22.792Z,2.75
2023-01-01T10:38:51.851Z,5.05
2023-01-01T10:41:20.993Z,1.90
2023-01-01T10:43:49.867Z,4.20
2023-01-01T10:46:27.658Z,4.15
2023-01-01T10:49:10.445Z,3.60
2023-01-01T10:51:42.763Z,2.38
2023-01-01T10:56:49.442Z,2.92
2023-01-01T10:59:35.310Z,2.85
2023-01-01T11:02:17.137Z,4.25
2023-01-01T11:04:45.291Z,3.03
2023-01-01T11:07:22.527Z,3.88
2023-01-01T11:10:02.727Z,2.42
2023-01-01T11:15:37.138Z,1.90
2023-01-01T11:18:07.412Z,2.38
2023-01-01T11:20:35.587Z,2.50
2023-01-01T11:23:20.838Z,3.35
2023-01-01T11:26:00.454Z,2.10
2023-01-01T11:28:31.583Z,3.80
2023-01-01T11:31:12.028Z,2.03
2023-01-01T11:33:45.209Z,4.00
2023-01-01T11:36:21.020Z,2.67
2023-01-01T11:38:51.022Z,3.08
2023-01-01T11:41:19.048Z,1.52
2023-01-01T11:43:49.996Z,2.13
2023-01-01T11:46:24.602Z,3.53
2023-01-01T11:48:54.857Z,2.72
2023-01-01T11:51:33.325Z,2.20
2023-01-01T11:54:30.394Z,4.10
2023-01-01T11:57:04.125Z,3.47
2023-01-01T11:59:42.213Z,3.03
2023-01-01T12:02:15.541Z,5.40
2023-01-01T12:04:50.089Z,2.70
2023-01-01T12:07:22.984Z,3.13
2023-01-01T12:09:56.186Z,2.47
2023-01-01T12:12:29.015Z,1.70
2023-01-01T12:15:03.596Z,2.72
2023-01-01T12:17:38.146Z,2.58
2023-01-01T12:20:12.361Z,5.50
2023-01-01T12:22:41.011Z,3.28
2023-01-01T12:25:14.904Z,1.52
2023-01-01T12:27:56.288Z,3.55
2023-01-01T12:30:31.296Z,2.47
2023-01-01T12:33:22.053Z,2.55
2023-01-01T12:36:06.916Z,3.08
2023-01-01T12:38:49.675Z,3.38
2023-01-01T12:41:29.874Z,4.35
2023-01-01T12:44:05.502Z,4.75
2023-01-01T12:46:45.989Z,3.30
2023-01-01T12:49:27.970Z,6.55
2023-01-01T12:52:15.666Z,2.67
2023-01-01T13:21:16.359Z,1.92
2023-01-01T13:24:47.144Z,1.52
2023-01-01T13:39:37.662Z,1.80
2023-01-01T13:43:09.886Z,2.00
2023-01-01T13:57:06.049Z,2.80
2023-01-01T14:15:14.908Z,2.22
2023-01-01T14:22:21.646Z,2.60
2023-01-01T14:24:54.400Z,2.50
2023-01-01T14:27:23.222Z,4.57
2023-01-01T14:29:52.458Z,5.60
2023-01-01T14:32:24.933Z,5.50
2023-01-01T14:35:02.917Z,4.25
2023-01-01T14:37:30.685Z,3.17
2023-01-01T14:40:17.335Z,4.18
2023-01-01T14:42:46.683Z,3.28
2023-01-01T14:45:17.046Z,3.45
2023-01-01T14:47:49.417Z,4.90
2023-01-01T14:50:24.575Z,4.90
2023-01-01T14:52:56.266Z,4.13
2023-01-01T14:55:36.131Z,3.85
2023-01-01T14:58:04.414Z,4.15
2023-01-01T15:00:34.105Z,2.97
2023-01-01T15:03:08.217Z,3.30
2023-01-01T15:05:37.046Z,3.40
2023-01-01T15:08:07.231Z,6.88
2023-01-01T15:10:38.989Z,2.25
2023-01-01T15:13:08.182Z,3.05
2023-01-01T15:15:41.339Z,3.25
2023-01-01T15:18:39.520Z,4.35
2023-01-01T15:21:13.286Z,4.38
2023-01-01T15:23:47.367Z,4.05
2023-01-01T15:26:26.155Z,2.10
2023-01-01T15:28:54.071Z,3.70
2023-01-01T15:31:23.048Z,4.72
2023-01-01T15:33:52.817Z,2.15
2023-01-01T15:36:25.522Z,1.70
2023-01-01T15:38:53.865Z,3.10
2023-01-01T15:41:26.196Z,3.15
2023-01-01T15:46:35.458Z,3.75
2023-01-01T15:49:04.653Z,3.70
2023-01-01T15:51:32.527Z,5.40
2023-01-01T15:54:02.852Z,7.53
2023-01-01T15:56:32.939Z,8.00
2023-01-01T15:59:09.074Z,6.70
2023-01-01T16:01:40.468Z,7.82
2023-01-01T16:04:11.912Z,5.78
2023-01-01T16:06:44.834Z,9.43
2023-01-01T16:09:13.721Z,8.40
2023-01-01T16:11:41.675Z,5.95
2023-01-01T16:14:09.739Z,11.02
2023-01-01T16:16:39.214Z,7.50
2023-01-01T16:19:07.327Z,7.28
2023-01-01T16:21:36.427Z,6.22
2023-01-01T16:24:04.293Z,7.35
2023-01-01T16:26:32.024Z,11.18
2023-01-01T16:28:59.887Z,11.40
2023-01-01T16:31:28.784Z,10.35
2023-01-01T16:33:58.610Z,8.80
2023-01-01T16:36:29.070Z,8.15
2023-01-01T16:38:59.113Z,8.20
2023-01-01T16:41:30.112Z,5.75
2023-01-01T16:43:58.363Z,4.53
2023-01-01T16:46:27.881Z,4.65
2023-01-01T16:48:55.720Z,4.82
2023-01-01T16:51:25.900Z,6.68
2023-01-01T16:53:53.751Z,3.78
2023-01-01T16:56:22.907Z,6.97
2023-01-01T16:58:54.222Z,7.50
2023-01-01T17:01:26.119Z,6.53
2023-01-01T17:03:53.967Z,4.05
2023-01-01T17:06:21.731Z,5.95
2023-01-01T17:08:49.495Z,5.15
2023-01-01T17:11:18.790Z,5.50
2023-01-01T17:13:48.997Z,6.95
2023-01-01T17:16:25.949Z,6.75
2023-01-01T17:21:44.590Z,16.10
2023-01-01T17:24:12.438Z,11.63
2023-01-01T17:26:40.267Z,10.60
2023-01-01T17:29:09.417Z,9.60
2023-01-01T17:31:37.464Z,5.90
2023-01-01T17:34:05.606Z,6.95
2023-01-01T17:36:33.528Z,7.68
2023-01-01T17:39:01.479Z,7.65
2023-01-01T17:41:29.233Z,8.30
2023-01-01T17:43:57.662Z,6.50
2023-01-01T17:46:29.538Z,4.68
2023-01-01T17:48:57.710Z,5.72
2023-01-01T17:51:25.526Z,5.32
2023-01-01T17:53:53.948Z,4.47
2023-01-01T17:56:23.194Z,5.60
2023-01-01T17:58:53.849Z,5.82
2023-01-01T18:01:31.707Z,5.53
2023-01-01T18:04:02.005Z,5.40
2023-01-01T18:06:31.249Z,3.42
2023-01-01T18:09:00.463Z,5.53
2023-01-01T18:11:29.821Z,3.15
2023-01-01T18:13:57.893Z,4.05
2023-01-01T18:16:26.462Z,4.03
2023-01-01T18:18:55.964Z,3.88
2023-01-01T18:21:24.782Z,5.95
2023-01-01T18:23:54.681Z,3.95
2023-01-01T18:26:23.945Z,3.40
2023-01-01T18:28:55.806Z,5.57
2023-01-01T18:31:24.082Z,4.47
2023-01-01T18:33:52.244Z,4.03
2023-01-01T18:36:24.231Z,4.57
2023-01-01T18:38:58.196Z,3.55
2023-01-01T18:41:41.975Z,4.65
2023-01-01T18:44:19.324Z,4.70
2023-01-01T18:46:50.660Z,4.93
2023-01-01T18:49:18.449Z,3.17
2023-01-01T18:51:52.420Z,4.10
2023-01-01T18:54:20.164Z,5.03
2023-01-01T18:56:48.595Z,3.67
2023-01-01T18:59:21.613Z,3.65
2023-01-01T19:01:49.862Z,5.05
2023-01-01T19:04:19.531Z,6.97
2023-01-01T19:06:48.686Z,3.35
2023-01-01T19:09:20.894Z,4.03
2023-01-01T19:11:55.832Z,6.68
2023-01-01T19:14:25.419Z,5.25
2023-01-01T19:16:58.835Z,4.43
2023-01-01T19:19:31.935Z,6.00
2023-01-01T19:22:19.303Z,3.72
2023-01-01T19:24:47.074Z,4.15
2023-01-01T19:27:18.284Z,4.53
2023-01-01T19:29:48.082Z,5.03
2023-01-01T19:32:16.216Z,6.18
2023-01-01T19:34:44.249Z,4.32
2023-01-01T19:37:13.391Z,3.58
2023-01-01T19:39:41.198Z,4.15
2023-01-01T19:42:09.407Z,4.30
2023-01-01T19:44:39.567Z,5.15
2023-01-01T19:47:09.115Z,3.42
2023-01-01T19:49:37.025Z,3.60
2023-01-01T19:52:06.143Z,7.72
2023-01-01T19:54:35.461Z,4.65
2023-01-01T19:57:05.482Z,3.63
2023-01-01T19:59:39.385Z,5.93
2023-01-01T20:02:44.223Z,4.80
2023-01-01T20:04:55.236Z,4.22
2023-01-01T20:07:23.021Z,3.53
2023-01-01T20:09:52.097Z,4.45
2023-01-01T20:12:19.862Z,4.97
2023-01-01T20:14:47.615Z,4.97
2023-01-01T20:17:15.634Z,5.22
2023-01-01T20:19:45.098Z,5.97
2023-01-01T20:22:14.094Z,5.32
2023-01-01T20:24:42.348Z,3.55
2023-01-01T20:27:12.153Z,4.75
2023-01-01T20:29:40.461Z,4.15
2023-01-01T20:32:12.416Z,5.90
2023-01-01T20:34:40.724Z,4.30
2023-01-01T20:37:26.651Z,4.40
2023-01-01T20:39:54.682Z,4.03
2023-01-01T20:42:23.810Z,3.40
2023-01-01T20:44:51.568Z,5.88
2023-01-01T20:47:19.350Z,3.50
2023-01-01T20:49:47.123Z,5.00
2023-01-01T20:52:14.914Z,3.63
2023-01-01T20:54:42.695Z,4.60
2023-01-01T20:57:10.497Z,3.88
2023-01-01T20:59:39.635Z,4.07
2023-01-01T21:02:09.446Z,4.05
2023-01-01T21:04:39.347Z,3.55
2023-01-01T21:07:08.930Z,3.67
2023-01-01T21:09:36.831Z,3.10
2023-01-01T21:12:07.876Z,3.78
2023-01-01T21:14:35.902Z,5.43
2023-01-01T21:17:18.362Z,4.47
2023-01-01T21:22:14.850Z,5.55
2023-01-01T21:24:49.688Z,4.22
2023-01-01T21:27:26.314Z,3.95
2023-01-01T21:30:00.327Z,3.28
2023-01-01T21:32:38.441Z,3.30
2023-01-01T21:35:16.824Z,5.40
2023-01-01T21:37:51.026Z,6.43
2023-01-01T21:40:34.000Z,4.68
2023-01-01T21:43:28.570Z,5.60
2023-01-01T21:46:00.721Z,5.47
2023-01-01T21:48:33.324Z,4.80
2023-01-01T21:51:01.997Z,3.97
2023-01-01T21:53:31.517Z,4.53
2023-01-01T21:59:03.503Z,7.30
2023-01-01T22:01:38.162Z,4.22
2023-01-01T22:04:21.375Z,4.28
2023-01-01T22:06:54.321Z,4.55
2023-01-01T22:09:25.587Z,4.15
2023-01-01T22:11:57.974Z,4.35
2023-01-01T22:16:56.773Z,3.53
2023-01-01T22:19:29.666Z,3.30
2023-01-01T22:21:57.614Z,3.38
2023-01-01T22:24:33.212Z,3.92
2023-01-01T22:27:18.932Z,4.10
2023-01-01T22:29:46.841Z,5.03
2023-01-01T22:32:20.841Z,3.92
2023-01-01T22:34:51.324Z,4.90
2023-01-01T22:37:21.112Z,4.45
2023-01-01T22:39:50.740Z,3.50
2023-01-01T22:42:20.183Z,5.38
2023-01-01T22:44:56.836Z,3.15
2023-01-01T22:47:31.696Z,4.88
2023-01-01T22:50:02.343Z,6.68
2023-01-01T22:52:30.427Z,5.05
2023-01-01T22:54:58.228Z,3.83
2023-01-01T22:57:25.992Z,5.28
2023-01-01T22:59:53.742Z,4.88
2023-01-01T23:02:21.552Z,3.50
2023-01-01T23:04:49.311Z,3.17
2023-01-01T23:07:18.422Z,7.75
2023-01-01T23:09:46.173Z,6.95
2023-01-01T23:12:14.016Z,5.55
2023-01-01T23:14:59.482Z,4.50
2023-01-01T23:17:27.209Z,3.95
2023-01-01T23:19:58.272Z,5.10
2023-01-01T23:22:29.239Z,4.13
2023-01-01T23:24:57.358Z,4.97
2023-01-01T23:27:25.155Z,3.90
2023-01-01T23:29:55.399Z,4.00
2023-01-01T23:32:23.143Z,4.72
2023-01-01T23:34:50.929Z,3.63
2023-01-01T23:37:18.739Z,3.63
2023-01-01T23:39:47.860Z,3.88
2023-01-01T23:42:15.614Z,4.25
2023-01-01T23:44:43.376Z,5.55
2023-01-01T23:47:11.739Z,7.25
2023-01-01T23:49:39.882Z,9.90
2023-01-01T23:52:07.736Z,8.48
2023-01-01T23:54:35.515Z,7.35
2023-01-01T23:57:04.789Z,7.53
2023-01-01T23:59:32.574Z,9.52
